Time;durP1;ratioP1;P1;durP2;ratioP2;P2;SDS_P1;SDS_P2;PMS_P1;PMS_P2;Temp;Humidity;BMP_temperature;BMP_pressure;BME280_temperature;BME280_humidity;BME280_pressure;Samples;Min_cycle;Max_cycle;Signal;HPM_P1;HPM_P2
2021/03/23 00:01:45;;;;;;;34.33;14.05;;;;;;;3.37;59.29;100768.20;1705346;81;27516;-80
2021/03/23 00:04:14;;;;;;;33.30;15.13;;;;;;;3.38;59.40;100764.59;1715441;80;26022;-80
2021/03/23 00:06:41;;;;;;;32.88;12.98;;;;;;;3.36;59.45;100759.42;1712981;81;25779;-80
2021/03/23 00:09:09;;;;;;;26.82;13.40;;;;;;;3.37;59.51;100764.23;1671594;81;25859;-80
2021/03/23 00:11:40;;;;;;;30.92;13.28;;;;;;;3.34;59.53;100761.37;1701191;81;25926;-80
2021/03/23 00:14:12;;;;;;;28.65;14.03;;;;;;;3.32;59.61;100762.47;1704421;81;27562;-80
2021/03/23 00:16:45;;;;;;;33.30;15.32;;;;;;;3.31;59.84;100760.81;1705960;83;25864;-79
2021/03/23 00:19:15;;;;;;;36.23;15.95;;;;;;;3.30;59.83;100756.48;1722039;81;25791;-80
2021/03/23 00:21:43;;;;;;;28.70;14.03;;;;;;;3.31;59.98;100758.17;1717584;81;26398;-80
2021/03/23 00:24:11;;;;;;;32.30;14.58;;;;;;;3.29;59.93;100758.80;1717444;81;25853;-80
2021/03/23 00:26:38;;;;;;;33.92;15.15;;;;;;;3.27;59.95;100758.09;1699688;81;28283;-80
2021/03/23 00:29:06;;;;;;;32.48;14.85;;;;;;;3.25;60.18;100751.59;1710736;81;25819;-80
2021/03/23 00:31:34;;;;;;;34.80;14.80;;;;;;;3.25;60.26;100754.75;1676975;81;25930;-80
2021/03/23 00:34:04;;;;;;;31.27;15.28;;;;;;;3.24;60.34;100748.61;1703170;83;25888;-80
2021/03/23 00:36:39;;;;;;;35.25;14.30;;;;;;;3.27;60.43;100748.83;1712621;81;25900;-80
2021/03/23 00:39:11;;;;;;;32.75;14.60;;;;;;;3.28;60.47;100750.48;1718001;81;27682;-80
2021/03/23 00:41:42;;;;;;;35.43;15.10;;;;;;;3.29;60.44;100745.08;1712672;81;25757;-80
2021/03/23 00:44:12;;;;;;;34.48;15.00;;;;;;;3.31;60.56;100747.58;1710371;80;25895;-80
2021/03/23 00:46:40;;;;;;;34.05;14.18;;;;;;;3.31;60.56;100747.58;1736158;81;25725;-80
2021/03/23 00:49:07;;;;;;;31.37;14.20;;;;;;;3.32;60.15;100750.56;1726431;80;25831;-80
2021/03/23 00:51:34;;;;;;;30.27;13.48;;;;;;;3.32;60.16;100745.27;1690891;81;27557;-79
2021/03/23 00:54:02;;;;;;;30.92;13.50;;;;;;;3.32;60.09;100747.91;1733957;80;25823;-80
2021/03/23 00:56:29;;;;;;;30.40;13.43;;;;;;;3.31;60.12;100743.13;1723437;81;25884;-80
2021/03/23 00:58:56;;;;;;;27.02;13.10;;;;;;;3.32;60.14;100754.05;1739212;80;25798;-80
2021/03/23 01:01:24;;;;;;;35.88;14.10;;;;;;;3.30;60.03;100751.19;1676411;81;26594;-80
2021/03/23 01:03:51;;;;;;;26.12;12.10;;;;;;;3.31;60.19;100752.39;1728775;81;27526;-80
2021/03/23 01:06:18;;;;;;;25.40;12.13;;;;;;;3.33;60.07;100748.28;1730557;81;26471;-80
2021/03/23 01:08:46;;;;;;;26.95;11.73;;;;;;;3.35;59.98;100747.65;1739000;81;26521;-80
2021/03/23 01:11:13;;;;;;;27.98;12.13;;;;;;;3.35;59.86;100750.30;1690427;81;25907;-80
2021/03/23 01:13:41;;;;;;;26.95;12.45;;;;;;;3.35;59.81;100749.81;1704164;82;26409;-80
2021/03/23 01:16:08;;;;;;;25.50;10.55;;;;;;;3.32;59.95;100744.78;1709380;82;28274;-80
2021/03/23 01:18:36;;;;;;;24.45;11.55;;;;;;;3.27;59.68;100749.67;1709008;83;25763;-80
2021/03/23 01:21:04;;;;;;;30.40;12.03;;;;;;;3.25;59.88;100744.16;1724030;82;25778;-80
2021/03/23 01:23:32;;;;;;;24.65;11.08;;;;;;;3.26;59.79;100741.84;1710187;81;25861;-80
2021/03/23 01:26:00;;;;;;;20.27;10.98;;;;;;;3.28;59.69;100739.89;1714199;82;25656;-80
2021/03/23 01:28:27;;;;;;;22.05;11.28;;;;;;;3.27;59.59;100739.56;1703243;82;27544;-80
2021/03/23 01:30:55;;;;;;;23.75;10.30;;;;;;;3.26;59.52;100738.72;1682066;82;26036;-81
2021/03/23 01:33:22;;;;;;;22.82;10.28;;;;;;;3.28;59.52;100733.28;1705811;81;25856;-81
2021/03/23 01:35:50;;;;;;;21.90;10.53;;;;;;;3.28;59.40;100731.47;1709790;81;25570;-80
2021/03/23 01:38:17;;;;;;;19.55;9.33;;;;;;;3.29;59.41;100722.58;1698334;81;26182;-81
2021/03/23 01:40:44;;;;;;;22.27;9.73;;;;;;;3.30;59.49;100727.36;1693094;82;27573;-80
2021/03/23 01:43:32;;;;;;;23.42;10.18;;;;;;;3.30;59.24;100728.20;1706890;81;25891;-81
2021/03/23 01:46:02;;;;;;;26.12;11.05;;;;;;;3.29;59.30;100731.00;1717382;81;25971;-80
2021/03/23 01:48:33;;;;;;;21.25;10.50;;;;;;;3.28;59.45;100718.23;1687383;81;26418;-81
2021/03/23 01:51:08;;;;;;;20.65;9.08;;;;;;;3.26;59.50;100719.34;1690831;81;25781;-80
2021/03/23 01:53:48;;;;;;;20.82;10.13;;;;;;;3.26;59.45;100709.59;1713652;81;27546;-80
2021/03/23 01:56:17;;;;;;;22.05;9.58;;;;;;;3.26;59.42;100721.52;1719202;81;26285;-80
2021/03/23 01:58:48;;;;;;;18.35;9.03;;;;;;;3.26;59.31;100723.31;1714597;81;25855;-80
2021/03/23 02:01:19;;;;;;;17.12;8.50;;;;;;;3.27;59.14;100721.87;1705039;82;26399;-80
2021/03/23 02:03:48;;;;;;;21.33;9.73;;;;;;;3.26;58.99;100720.67;1702113;81;26349;-80
2021/03/23 02:06:44;;;;;;;21.05;9.60;;;;;;;3.24;59.08;100725.27;1713549;81;27342;-80
2021/03/23 02:09:19;;;;;;;19.10;9.00;;;;;;;3.26;59.04;100721.99;1710789;82;26112;-80
2021/03/23 02:11:50;;;;;;;22.30;8.88;;;;;;;3.26;58.80;100722.84;1742272;81;26456;-80
2021/03/23 02:14:21;;;;;;;21.87;9.80;;;;;;;3.26;58.81;100725.48;1737338;81;26198;-80
2021/03/23 02:16:48;;;;;;;21.07;10.05;;;;;;;3.26;58.85;100720.67;1695549;81;25890;-80
2021/03/23 02:19:19;;;;;;;19.07;8.50;;;;;;;3.27;58.88;100726.33;1702628;81;27547;-80
2021/03/23 02:21:46;;;;;;;19.70;8.78;;;;;;;3.29;58.83;100729.67;1709931;81;25840;-80
2021/03/23 02:24:16;;;;;;;18.30;8.18;;;;;;;3.27;58.77;100727.17;1735355;81;25807;-80
2021/03/23 02:26:44;;;;;;;17.10;8.05;;;;;;;3.27;58.79;100727.17;1712154;81;25825;-80
2021/03/23 02:29:18;;;;;;;17.45;9.03;;;;;;;3.27;58.89;100731.14;1694024;82;26262;-80
2021/03/23 02:31:50;;;;;;;19.17;8.98;;;;;;;3.28;58.94;100732.80;1704683;82;27542;-80
2021/03/23 02:34:22;;;;;;;17.80;8.60;;;;;;;3.27;58.95;100731.63;1708944;82;25436;-80
2021/03/23 02:36:51;;;;;;;19.50;9.18;;;;;;;3.25;58.91;100730.41;1709750;82;26510;-80
2021/03/23 02:39:24;;;;;;;14.68;8.15;;;;;;;3.26;59.09;100735.23;1723458;81;25796;-80
2021/03/23 02:41:56;;;;;;;20.90;8.85;;;;;;;3.24;59.06;100733.20;1745862;81;25394;-80
2021/03/23 02:44:25;;;;;;;18.23;8.13;;;;;;;3.22;59.05;100729.38;1702012;82;27546;-80
2021/03/23 02:46:53;;;;;;;18.02;7.92;;;;;;;3.20;59.16;100735.78;1708425;82;25835;-79
2021/03/23 02:49:21;;;;;;;19.62;8.68;;;;;;;3.19;59.11;100735.45;1669169;82;25873;-80
2021/03/23 02:51:50;;;;;;;22.87;10.08;;;;;;;3.18;59.03;100734.59;1671145;82;26113;-80
2021/03/23 02:54:18;;;;;;;21.60;8.30;;;;;;;3.18;59.22;100737.73;1720832;82;25784;-80
2021/03/23 02:56:45;;;;;;;17.48;8.50;;;;;;;3.19;59.26;100738.09;1707212;82;27425;-80
2021/03/23 02:59:12;;;;;;;20.88;8.95;;;;;;;3.19;59.33;100736.77;1685568;83;26190;-80
2021/03/23 03:01:40;;;;;;;17.67;8.00;;;;;;;3.18;59.31;100734.59;1656839;83;25834;-80
2021/03/23 03:04:07;;;;;;;16.05;8.03;;;;;;;3.20;59.34;100741.08;1704556;82;25940;-80
2021/03/23 03:06:34;;;;;;;19.52;8.60;;;;;;;3.18;59.29;100737.73;1700354;83;25432;-80
2021/03/23 03:09:03;;;;;;;19.48;8.83;;;;;;;3.18;59.34;100739.05;1688015;84;27632;-80
2021/03/23 03:11:30;;;;;;;21.23;8.98;;;;;;;3.20;59.35;100735.78;1671057;83;25898;-80
2021/03/23 03:13:58;;;;;;;22.35;8.58;;;;;;;3.21;59.36;100736.14;1706325;83;25791;-79
2021/03/23 03:16:25;;;;;;;18.75;8.85;;;;;;;3.20;59.31;100731.33;1693255;83;25833;-80
2021/03/23 03:18:53;;;;;;;25.77;9.60;;;;;;;3.19;59.34;100730.16;1685906;83;25906;-80
2021/03/23 03:21:20;;;;;;;18.62;8.68;;;;;;;3.19;59.49;100739.41;1655260;83;28572;-80
2021/03/23 03:23:48;;;;;;;20.50;9.65;;;;;;;3.21;59.69;100746.22;1696538;83;25629;-80
2021/03/23 03:26:15;;;;;;;20.88;9.13;;;;;;;3.22;59.63;100739.97;1705847;83;25412;-80
2021/03/23 03:28:49;;;;;;;21.15;9.80;;;;;;;3.21;59.45;100740.11;1692017;83;25869;-80
2021/03/23 03:31:12;;;;;;;21.65;8.98;;;;;;;3.19;59.48;100740.73;1661640;84;25707;-80
2021/03/23 03:33:39;;;;;;;24.50;10.58;;;;;;;3.18;59.42;100737.73;1717371;81;26813;-80
2021/03/23 03:36:07;;;;;;;19.57;9.53;;;;;;;3.13;59.74;100733.68;1720753;81;25809;-79
2021/03/23 03:38:34;;;;;;;27.65;9.75;;;;;;;3.10;59.81;100731.30;1696253;83;25449;-80
2021/03/23 03:41:01;;;;;;;18.50;9.20;;;;;;;3.09;60.10;100728.31;1681277;81;26447;-79
2021/03/23 03:46:08;;;;;;;23.75;9.43;;;;;;;3.08;60.36;100726.62;1838447;77;25698;-81
2021/03/23 03:48:35;;;;;;;21.60;9.43;;;;;;;3.01;60.46;100732.13;1742156;78;26084;-80
2021/03/23 03:51:03;;;;;;;22.82;9.50;;;;;;;2.99;60.67;100726.62;1771247;78;27607;-80
2021/03/23 03:53:30;;;;;;;21.55;9.15;;;;;;;2.94;60.75;100728.81;1799203;77;25779;-80
2021/03/23 03:55:58;;;;;;;21.75;9.80;;;;;;;2.91;60.89;100723.30;1769901;80;25719;-80
2021/03/23 03:58:25;;;;;;;26.30;9.95;;;;;;;2.91;61.03;100722.46;1703439;81;25868;-80
2021/03/23 04:00:53;;;;;;;28.12;11.85;;;;;;;2.89;61.09;100722.61;1753137;80;25804;-80
2021/03/23 04:03:24;;;;;;;22.82;10.38;;;;;;;2.87;61.19;100727.20;1756990;80;28335;-80
2021/03/23 04:05:54;;;;;;;22.32;9.43;;;;;;;2.87;61.26;100729.84;1754102;81;25764;-80
2021/03/23 04:08:31;;;;;;;21.65;8.95;;;;;;;2.87;61.29;100731.16;1707160;80;25885;-80
2021/03/23 04:11:01;;;;;;;22.25;9.88;;;;;;;2.86;61.30;100720.25;1756798;80;26017;-80
2021/03/23 04:18:04;;;;;;;20.15;9.58;;;;;;;2.85;61.34;100720.36;1777162;80;25785;-80
2021/03/23 04:20:32;;;;;;;16.05;9.00;;;;;;;2.82;61.36;100728.58;1775781;79;25778;-80
2021/03/23 04:23:00;;;;;;;27.30;15.80;;;;;;;2.83;61.47;100739.50;1740805;80;26347;-80
2021/03/23 04:25:31;;;;;;;31.82;16.57;;;;;;;2.84;61.46;100747.32;1755635;80;25844;-80
2021/03/23 04:27:59;;;;;;;29.12;12.78;;;;;;;2.84;61.38;100744.67;1756891;80;26471;-80
2021/03/23 04:30:28;;;;;;;88.15;53.60;;;;;;;2.89;61.55;100747.73;1756149;80;27641;-80
2021/03/23 04:32:57;;;;;;;31.65;19.27;;;;;;;2.92;61.45;100744.84;1728460;80;25568;-80
2021/03/23 04:35:41;;;;;;;27.45;16.35;;;;;;;2.93;61.31;100749.66;1754237;80;26076;-80
2021/03/23 04:38:13;;;;;;;23.07;11.22;;;;;;;2.95;61.40;100748.52;1767150;80;26484;-80
2021/03/23 04:40:40;;;;;;;22.10;9.90;;;;;;;2.94;61.35;100757.92;1778991;80;25811;-80
2021/03/23 04:43:10;;;;;;;21.82;9.45;;;;;;;2.93;61.28;100753.62;1749307;80;27541;-80
2021/03/23 04:45:38;;;;;;;20.27;8.78;;;;;;;2.92;61.40;100758.55;1755392;80;26096;-80
2021/03/23 04:48:06;;;;;;;17.95;7.85;;;;;;;2.91;61.46;100760.83;1753238;80;25834;-80
2021/03/23 04:50:34;;;;;;;18.98;8.00;;;;;;;2.90;61.56;100763.98;1768903;80;26130;-80
2021/03/23 04:53:01;;;;;;;23.00;8.85;;;;;;;2.89;61.63;100764.94;1743709;80;25802;-80
2021/03/23 04:55:30;;;;;;;20.68;8.80;;;;;;;2.89;61.66;100762.77;1743475;80;27539;-79
2021/03/23 04:57:57;;;;;;;17.73;8.20;;;;;;;2.88;61.62;100765.92;1748715;80;25859;-80
2021/03/23 05:00:25;;;;;;;23.10;9.28;;;;;;;2.92;61.82;100769.13;1770726;80;25815;-80
2021/03/23 05:02:52;;;;;;;17.12;8.45;;;;;;;2.96;61.81;100770.53;1671625;80;25814;-80
2021/03/23 05:05:20;;;;;;;14.40;7.12;;;;;;;2.99;61.77;100774.25;1711433;80;25829;-80
2021/03/23 05:07:47;;;;;;;21.17;8.60;;;;;;;3.00;61.73;100777.22;1751484;80;27402;-80
2021/03/23 05:10:15;;;;;;;16.02;7.83;;;;;;;3.02;61.84;100781.42;1773462;80;26107;-80
2021/03/23 05:12:42;;;;;;;17.92;8.85;;;;;;;3.02;61.83;100781.42;1709456;81;25838;-80
2021/03/23 05:15:10;;;;;;;18.07;7.60;;;;;;;3.05;61.73;100782.48;1747110;80;25606;-80
2021/03/23 05:17:38;;;;;;;18.92;8.50;;;;;;;3.10;61.76;100783.41;1753641;80;26151;-80
2021/03/23 05:20:07;;;;;;;19.45;7.78;;;;;;;3.13;61.75;100782.64;1760346;80;27529;-80
2021/03/23 05:22:34;;;;;;;15.50;7.83;;;;;;;3.11;61.61;100780.62;1733471;80;25403;-80
2021/03/23 05:29:05;;;;;;;15.13;7.22;;;;;;;3.11;61.56;100781.94;1775745;80;25823;-80
2021/03/23 05:31:33;;;;;;;16.42;8.03;;;;;;;3.08;61.65;100789.29;1768606;80;25726;-80
2021/03/23 05:34:00;;;;;;;16.90;7.97;;;;;;;3.09;61.74;100789.66;1712444;80;27002;-80
2021/03/23 05:36:28;;;;;;;18.45;8.20;;;;;;;3.10;61.79;100783.41;1747844;80;26189;-80
2021/03/23 05:38:55;;;;;;;21.37;8.28;;;;;;;3.09;61.79;100786.53;1747130;80;26294;-80
2021/03/23 05:41:49;;;;;;;16.05;8.45;;;;;;;3.07;61.85;100777.05;1770733;80;26164;-80
2021/03/23 05:44:50;;;;;;;20.12;9.08;;;;;;;3.03;61.98;100780.46;1750682;80;25703;-80
2021/03/23 05:47:22;;;;;;;14.97;8.10;;;;;;;3.05;62.19;100786.45;1760463;80;27529;-80
2021/03/23 05:50:16;;;;;;;18.73;6.87;;;;;;;3.05;62.35;100786.45;1759982;80;26308;-80
2021/03/23 05:53:19;;;;;;;15.30;8.18;;;;;;;3.04;62.53;100778.63;1759531;80;26107;-80
2021/03/23 05:55:48;;;;;;;19.17;7.10;;;;;;;3.03;62.81;100784.43;1762620;80;25360;-80
2021/03/23 05:58:28;;;;;;;15.90;7.65;;;;;;;3.03;62.83;100788.40;1757771;80;25831;-80
2021/03/23 06:01:00;;;;;;;20.37;8.03;;;;;;;3.06;63.08;100793.88;1749882;80;27511;-80
2021/03/23 06:03:35;;;;;;;16.67;8.20;;;;;;;3.08;63.37;100802.52;1770882;80;25918;-80
2021/03/23 06:06:35;;;;;;;19.10;7.85;;;;;;;3.12;63.40;100799.98;1740290;80;25462;-80
2021/03/23 06:09:05;;;;;;;16.02;8.20;;;;;;;3.14;63.43;100804.66;1746340;81;25876;-80
2021/03/23 06:11:47;;;;;;;15.80;7.60;;;;;;;3.16;63.57;100800.07;1770082;80;25504;-80
2021/03/23 06:14:41;;;;;;;16.42;8.00;;;;;;;3.17;63.78;100807.02;1791966;79;27516;-80
2021/03/23 06:17:46;;;;;;;15.30;6.75;;;;;;;3.18;64.07;100811.36;1769473;79;26391;-80
2021/03/23 06:20:34;;;;;;;14.78;8.55;;;;;;;3.21;64.21;100815.55;1776739;79;25914;-80
2021/03/23 06:23:44;;;;;;;11.45;6.20;;;;;;;3.23;64.40;100821.55;1745904;81;25765;-80
2021/03/23 06:26:33;;;;;;;17.77;7.75;;;;;;;3.21;64.62;100824.30;1777935;80;25905;-80
2021/03/23 06:29:45;;;;;;;15.72;7.03;;;;;;;3.20;64.80;100824.45;1760583;79;27575;-80
2021/03/23 06:32:38;;;;;;;20.92;7.78;;;;;;;3.20;65.05;100819.16;1756780;80;25960;-80
2021/03/23 06:35:16;;;;;;;16.30;8.05;;;;;;;3.23;64.99;100830.81;1749620;80;25890;-80
2021/03/23 06:37:44;;;;;;;19.32;7.35;;;;;;;3.26;65.13;100822.58;1778671;79;26071;-80
2021/03/23 06:40:23;;;;;;;17.20;8.03;;;;;;;3.33;65.25;100827.22;1723833;79;25848;-80
2021/03/23 06:42:55;;;;;;;14.38;7.40;;;;;;;3.41;65.45;100827.85;1731306;80;27538;-80
2021/03/23 06:45:38;;;;;;;15.98;7.42;;;;;;;3.44;65.59;100834.22;1736547;80;25788;-80
2021/03/23 06:48:25;;;;;;;18.25;7.58;;;;;;;3.48;65.49;100832.97;1757789;80;25782;-80
2021/03/23 06:51:19;;;;;;;16.35;7.33;;;;;;;3.47;65.52;100837.90;1781453;80;26098;-80
2021/03/23 06:53:46;;;;;;;17.45;7.75;;;;;;;3.49;65.82;100828.85;1778378;80;26598;-80
2021/03/23 06:56:23;;;;;;;14.87;7.57;;;;;;;3.51;65.83;100832.67;1739273;80;27958;-80
2021/03/23 06:59:16;;;;;;;14.58;6.08;;;;;;;3.56;66.10;100843.71;1783829;80;26304;-80
2021/03/23 07:01:47;;;;;;;17.07;7.62;;;;;;;3.62;66.13;100845.33;1761580;80;25435;-80
2021/03/23 07:04:26;;;;;;;12.47;6.97;;;;;;;3.64;66.21;100839.89;1759851;80;26062;-80
2021/03/23 07:07:11;;;;;;;18.12;7.17;;;;;;;3.66;66.38;100836.14;1760552;79;25860;-80
2021/03/23 07:09:56;;;;;;;19.45;9.15;;;;;;;3.72;66.35;100832.12;1755570;80;28412;-80
2021/03/23 07:12:45;;;;;;;16.00;8.70;;;;;;;3.76;66.43;100840.95;1705354;83;26049;-80
2021/03/23 07:15:23;;;;;;;15.13;7.78;;;;;;;3.84;66.21;100838.95;1721129;81;26556;-80
2021/03/23 07:17:58;;;;;;;15.45;7.75;;;;;;;3.89;66.26;100833.58;1695980;81;25889;-80
2021/03/23 07:20:38;;;;;;;20.10;8.83;;;;;;;3.97;66.72;100838.69;1745470;81;25751;-80
2021/03/23 07:23:32;;;;;;;19.23;6.67;;;;;;;4.03;66.56;100847.41;1715988;81;28117;-80
2021/03/23 07:26:27;;;;;;;16.55;7.42;;;;;;;4.00;66.12;100854.33;1735076;81;25823;-80
2021/03/23 07:29:17;;;;;;;18.90;8.05;;;;;;;3.95;66.36;100847.27;1672655;83;26274;-80
2021/03/23 07:32:18;;;;;;;15.00;7.50;;;;;;;3.98;66.50;100845.16;1717264;82;26127;-80
2021/03/23 07:35:03;;;;;;;16.05;7.95;;;;;;;4.05;66.60;100850.27;1732350;82;25911;-80
2021/03/23 07:37:42;;;;;;;15.43;7.37;;;;;;;4.17;66.88;100849.66;1747910;81;27349;-80
2021/03/23 07:40:30;;;;;;;17.70;7.58;;;;;;;4.20;66.72;100852.86;1769438;80;26548;-80
2021/03/23 07:43:26;;;;;;;12.28;5.75;;;;;;;4.21;66.95;100847.91;1702771;81;25902;-81
2021/03/23 07:46:19;;;;;;;16.52;7.50;;;;;;;4.29;66.71;100860.45;1697931;83;26206;-81
2021/03/23 07:49:23;;;;;;;15.03;7.65;;;;;;;4.34;66.89;100848.95;1705175;81;25534;-80
2021/03/23 07:52:32;;;;;;;16.60;7.65;;;;;;;4.42;67.12;100847.75;1751332;80;27595;-81
2021/03/23 07:55:01;;;;;;;17.30;7.85;;;;;;;4.47;67.20;100858.78;1727641;81;25766;-81
2021/03/23 07:57:46;;;;;;;13.20;6.85;;;;;;;4.51;67.06;100850.89;1730686;81;26088;-81
2021/03/23 08:00:19;;;;;;;14.20;7.03;;;;;;;4.56;66.61;100851.28;1696530;80;25540;-81
2021/03/23 08:03:12;;;;;;;15.85;6.78;;;;;;;4.54;66.74;100855.41;1751697;80;25790;-80
2021/03/23 08:06:02;;;;;;;16.65;8.15;;;;;;;4.54;66.80;100854.56;1721474;81;27555;-80
2021/03/23 08:08:54;;;;;;;16.67;7.50;;;;;;;4.53;66.67;100855.05;1717635;83;26454;-80
2021/03/23 08:12:00;;;;;;;15.30;7.17;;;;;;;4.54;67.26;100853.23;1709480;83;25944;-80
2021/03/23 08:15:07;;;;;;;13.35;6.87;;;;;;;4.58;67.10;100861.26;1744073;81;26411;-81
2021/03/23 08:18:13;;;;;;;22.60;8.58;;;;;;;4.61;66.98;100866.30;1724497;81;25805;-81
2021/03/23 08:21:12;;;;;;;19.65;8.48;;;;;;;4.67;67.11;100875.00;1746521;81;27536;-80
2021/03/23 08:24:18;;;;;;;19.77;8.73;;;;;;;4.69;67.23;100874.37;1730062;80;25948;-80
2021/03/23 08:27:24;;;;;;;18.35;7.40;;;;;;;4.75;67.26;100863.18;1756158;81;25617;-81
2021/03/23 08:30:32;;;;;;;19.23;8.73;;;;;;;4.86;67.57;100856.87;1692184;83;25757;-80
2021/03/23 08:33:13;;;;;;;23.05;7.97;;;;;;;4.95;67.42;100865.30;1687273;84;26208;-80
2021/03/23 08:36:28;;;;;;;20.27;8.20;;;;;;;5.04;67.53;100862.63;1681605;84;28804;-80
2021/03/23 08:39:27;;;;;;;19.48;9.00;;;;;;;5.09;66.83;100861.69;1685411;84;26271;-80
2021/03/23 08:42:21;;;;;;;16.95;7.85;;;;;;;5.10;66.89;100861.20;1670677;84;25394;-81
2021/03/23 08:45:06;;;;;;;15.50;7.95;;;;;;;5.15;67.22;100874.41;1703361;81;26442;-81
2021/03/23 08:47:41;;;;;;;15.65;8.03;;;;;;;5.19;67.20;100871.80;1769220;79;25858;-80
2021/03/23 08:50:21;;;;;;;17.73;8.08;;;;;;;5.29;67.03;100867.28;1763473;80;27543;-81
2021/03/23 08:52:55;;;;;;;19.17;9.03;;;;;;;5.40;66.54;100871.08;1749756;80;25796;-81
2021/03/23 08:55:35;;;;;;;17.55;8.30;;;;;;;5.48;67.26;100871.66;1733640;79;25884;-80
2021/03/23 08:58:13;;;;;;;15.45;8.15;;;;;;;5.64;67.12;100878.52;1764521;80;25524;-80
2021/03/23 09:01:00;;;;;;;18.50;7.95;;;;;;;5.79;66.53;100874.86;1789359;79;25902;-80
2021/03/23 09:03:47;;;;;;;16.77;8.28;;;;;;;5.89;66.52;100869.00;1763433;80;27824;-80
2021/03/23 09:06:18;;;;;;;17.57;8.18;;;;;;;5.96;65.84;100877.58;1751986;80;25626;-80
2021/03/23 09:09:10;;;;;;;14.13;7.20;;;;;;;5.94;65.39;100877.37;1747718;80;25421;-81
2021/03/23 09:12:01;;;;;;;18.92;8.08;;;;;;;5.93;66.55;100875.70;1785358;79;25768;-80
2021/03/23 09:14:32;;;;;;;19.87;8.88;;;;;;;6.06;66.29;100874.84;1773638;79;25731;-81
2021/03/23 09:17:04;;;;;;;19.50;8.65;;;;;;;6.19;66.05;100880.63;1744689;81;27601;-80
2021/03/23 09:19:41;;;;;;;13.28;6.67;;;;;;;6.29;65.80;100873.39;1754122;80;25727;-81
2021/03/23 09:22:22;;;;;;;21.37;9.58;;;;;;;6.39;66.18;100873.33;1775537;80;25853;-80
2021/03/23 09:24:52;;;;;;;16.50;9.50;;;;;;;6.56;66.13;100868.48;1752547;79;26505;-81
2021/03/23 09:27:31;;;;;;;16.05;7.42;;;;;;;6.68;65.45;100874.73;1766567;80;25765;-76
2021/03/23 09:29:58;;;;;;;20.17;8.63;;;;;;;6.74;65.11;100879.42;1754804;80;27541;-78
2021/03/23 09:32:29;;;;;;;13.25;7.55;;;;;;;6.80;65.30;100880.13;1774721;80;26715;-79
2021/03/23 09:35:14;;;;;;;;;;;;;;;6.89;65.70;100890.34;1727042;80;26413;-79
2021/03/23 09:37:43;;;;;;;18.77;9.10;;;;;;;6.99;65.06;100899.09;1778936;79;25788;-79
2021/03/23 09:40:24;;;;;;;17.07;8.18;;;;;;;6.98;64.74;100898.25;1751221;80;26513;-80
2021/03/23 09:42:57;;;;;;;16.77;8.53;;;;;;;7.01;64.17;100897.10;1777473;79;27542;-79
2021/03/23 09:45:38;;;;;;;15.05;8.35;;;;;;;6.98;64.43;100892.92;1765803;80;25713;-79
2021/03/23 09:48:36;;;;;;;18.65;8.58;;;;;;;7.03;63.87;100894.27;1753964;79;25861;-80
2021/03/23 09:51:09;;;;;;;15.53;7.65;;;;;;;7.06;65.14;100899.30;1765103;79;26262;-78
2021/03/23 09:53:42;;;;;;;18.65;8.00;;;;;;;7.12;63.46;100900.00;1750870;79;25844;-79
2021/03/23 09:56:21;;;;;;;18.90;8.40;;;;;;;7.12;63.85;100906.14;1758610;80;28476;-79
2021/03/23 09:59:11;;;;;;;15.18;6.97;;;;;;;7.17;64.22;100909.66;1765207;79;26067;-79
2021/03/23 10:02:06;;;;;;;19.17;8.95;;;;;;;7.25;63.44;100908.41;1730478;79;25744;-79
2021/03/23 10:04:40;;;;;;;14.50;7.40;;;;;;;7.34;63.97;100910.09;1732843;80;26377;-79
2021/03/23 10:07:29;;;;;;;16.10;6.67;;;;;;;7.46;63.89;100914.19;1775013;80;25707;-79
2021/03/23 10:10:14;;;;;;;16.95;8.43;;;;;;;7.53;63.05;100914.70;1749734;80;27629;-79
2021/03/23 10:12:41;;;;;;;18.95;7.85;;;;;;;7.63;63.79;100914.59;1795570;79;25787;-79
2021/03/23 10:15:39;;;;;;;12.35;7.42;;;;;;;7.74;63.22;100911.65;1740616;80;25848;-79
2021/03/23 10:18:18;;;;;;;17.57;7.47;;;;;;;7.78;62.51;100918.33;1725740;80;26450;-80
2021/03/23 10:21:02;;;;;;;21.02;7.97;;;;;;;7.80;61.77;100916.33;1775616;77;26254;-79
2021/03/23 10:23:31;;;;;;;15.98;7.67;;;;;;;7.87;62.45;100919.19;1753000;80;27332;-79
2021/03/23 10:26:03;;;;;;;14.15;7.80;;;;;;;7.83;61.98;100927.18;1754115;80;26083;-79
2021/03/23 10:28:35;;;;;;;15.78;8.05;;;;;;;7.74;61.96;100926.31;1776135;80;25835;-79
2021/03/23 10:31:11;;;;;;;16.73;7.28;;;;;;;7.69;61.65;100920.12;1753498;80;25799;-78
2021/03/23 10:33:41;;;;;;;16.42;8.60;;;;;;;7.66;62.25;100920.43;1756004;80;25727;-79
2021/03/23 10:36:12;;;;;;;15.30;8.53;;;;;;;7.76;62.99;100914.98;1740130;80;28394;-78
2021/03/23 10:38:44;;;;;;;13.68;7.87;;;;;;;7.91;62.39;100913.38;1780080;80;25782;-79
2021/03/23 10:41:24;;;;;;;16.48;7.62;;;;;;;7.98;62.53;100914.86;1758420;80;25768;-79
2021/03/23 10:43:56;;;;;;;13.18;8.00;;;;;;;8.03;61.56;100911.22;1746860;81;26224;-79
2021/03/23 10:46:36;;;;;;;17.15;8.48;;;;;;;7.92;61.00;100911.03;1744739;80;26042;-79
2021/03/23 10:49:27;;;;;;;18.40;9.43;;;;;;;7.86;61.49;100909.02;1770522;80;26825;-79
2021/03/23 10:52:12;;;;;;;16.30;8.23;;;;;;;7.85;62.19;100911.33;1755986;80;25749;-79
2021/03/23 10:54:39;;;;;;;15.83;8.60;;;;;;;7.88;62.35;100915.02;1791377;79;25830;-79
2021/03/23 10:57:30;;;;;;;13.25;6.75;;;;;;;7.95;62.14;100920.05;1743558;80;26514;-79
2021/03/23 11:00:18;;;;;;;16.87;8.30;;;;;;;8.03;61.98;100919.23;1758908;79;32935;-79
2021/03/23 11:02:45;;;;;;;18.05;8.33;;;;;;;8.11;62.61;100912.57;1786093;79;28414;-78
2021/03/23 11:05:17;;;;;;;14.73;9.03;;;;;;;8.23;62.77;100922.77;1765508;79;26453;-80
2021/03/23 11:08:01;;;;;;;15.18;8.33;;;;;;;8.36;62.77;100921.83;1764397;79;25862;-79
2021/03/23 11:10:32;;;;;;;16.27;8.68;;;;;;;8.48;62.47;100921.86;1756093;80;25793;-80
2021/03/23 11:13:00;;;;;;;16.37;7.65;;;;;;;8.64;62.17;100929.55;1761801;80;25877;-80
2021/03/23 11:18:31;;;;;;;16.17;8.48;;;;;;;8.89;59.91;100920.03;1835938;77;25714;-79
2021/03/23 11:21:02;;;;;;;15.72;8.10;;;;;;;8.83;60.33;100922.55;1780336;78;25931;-80
2021/03/23 11:23:46;;;;;;;13.83;7.35;;;;;;;8.85;61.31;100917.87;1778880;78;27343;-80
2021/03/23 11:26:21;;;;;;;17.27;8.58;;;;;;;8.92;61.95;100925.52;1743281;81;26158;-79
2021/03/23 11:28:55;;;;;;;15.70;7.50;;;;;;;9.04;61.85;100920.19;1691815;81;25803;-80
2021/03/23 11:31:26;;;;;;;13.70;7.50;;;;;;;9.13;60.52;100926.67;1752392;81;25860;-79
2021/03/23 11:33:55;;;;;;;12.68;7.67;;;;;;;9.14;60.45;100925.68;1712449;81;25870;-79
2021/03/23 11:36:24;;;;;;;12.75;7.60;;;;;;;9.12;59.40;100926.36;1748086;81;27618;-79
2021/03/23 11:38:52;;;;;;;13.00;8.05;;;;;;;9.09;59.19;100924.50;1697057;81;25732;-79
2021/03/23 11:41:28;;;;;;;13.30;7.78;;;;;;;9.09;60.49;100925.84;1698848;81;25860;-80
2021/03/23 11:44:06;;;;;;;17.57;8.68;;;;;;;9.20;59.93;100918.81;1742895;81;25643;-79
2021/03/23 11:46:51;;;;;;;15.08;9.00;;;;;;;9.26;60.37;100918.97;1749981;81;26341;-80
2021/03/23 11:49:33;;;;;;;15.43;7.95;;;;;;;9.34;60.54;100919.47;1735589;81;27555;-80
2021/03/23 11:52:02;;;;;;;17.85;8.55;;;;;;;9.42;59.88;100923.45;1736154;81;26295;-80
2021/03/23 11:54:29;;;;;;;20.10;8.60;;;;;;;9.44;60.18;100923.27;1724545;81;25742;-80
2021/03/23 11:57:00;;;;;;;14.93;8.80;;;;;;;9.45;59.83;100923.61;1750769;81;26619;-80
2021/03/23 11:59:30;;;;;;;18.90;8.65;;;;;;;9.47;59.91;100929.63;1736821;80;25859;-79
2021/03/23 12:02:00;;;;;;;17.60;9.40;;;;;;;9.51;60.54;100926.93;1717228;81;26361;-80
2021/03/23 12:04:28;;;;;;;15.40;8.43;;;;;;;9.57;60.33;100926.23;1764658;80;25454;-80
2021/03/23 12:07:10;;;;;;;18.92;8.40;;;;;;;9.58;60.46;100915.36;1759109;80;26236;-80
2021/03/23 12:09:43;;;;;;;16.15;8.73;;;;;;;9.66;60.49;100915.84;1742625;80;26361;-80
2021/03/23 12:12:24;;;;;;;17.27;9.55;;;;;;;9.73;61.10;100910.15;1750846;80;25847;-78
2021/03/23 12:15:13;;;;;;;20.95;9.13;;;;;;;9.78;60.09;100913.95;1735403;81;27377;-77
2021/03/23 12:17:45;;;;;;;14.33;8.35;;;;;;;9.80;60.58;100911.09;1741139;80;26430;-77
2021/03/23 12:20:20;;;;;;;16.73;8.50;;;;;;;9.83;59.90;100908.92;1764536;80;25745;-83